Greenwood, Maine
Current Conditions -  °F | °C
As of 9:52 AM on Saturday 20 Dec 2014 (Local Time) from KBML Reporting Station
Clear Clear  
Wind Chill:   Ceiling: Unl
Heat Index:   Visibility: 9mi
Dew Point:   Wind: 0mph
Humidity: 84%   Direction: NA
Pressure: 30.28"   Gusts: NA
Location:  44.4002°N, 70.7026°W
Report Text: KBML 201452Z AUTO 00000KT 9SM CLR M13/M15 A3028 RMK AO2 SLP282 T11281150 50013
Loading
Personal Weather Stations






























Interactive Weather Map New forecast layout! Learn more

10-Day Weather Forecast

Advertisements
Track Severe Weather on mobile